sensor_id;sensor_type;location;lat;lon;timestamp;P1;durP1;ratioP1;P2;durP2;ratioP2
6017;SDS011;3037;51.068;13.780;2023-05-07T00:01:12;20.07;;;14.47;;
6017;SDS011;3037;51.068;13.780;2023-05-07T00:03:38;17.60;;;13.93;;
6017;SDS011;3037;51.068;13.780;2023-05-07T00:06:04;23.50;;;15.20;;
6017;SDS011;3037;51.068;13.780;2023-05-07T00:08:29;19.63;;;12.93;;
6017;SDS011;3037;51.068;13.780;2023-05-07T00:10:55;20.97;;;14.20;;
6017;SDS011;3037;51.068;13.780;2023-05-07T00:13:20;21.47;;;13.67;;
6017;SDS011;3037;51.068;13.780;2023-05-07T00:15:46;22.60;;;13.00;;
6017;SDS011;3037;51.068;13.780;2023-05-07T00:18:11;22.83;;;14.97;;
6017;SDS011;3037;51.068;13.780;2023-05-07T00:20:37;20.17;;;14.80;;
6017;SDS011;3037;51.068;13.780;2023-05-07T00:23:02;19.93;;;14.37;;
6017;SDS011;3037;51.068;13.780;2023-05-07T00:25:27;25.50;;;16.40;;
6017;SDS011;3037;51.068;13.780;2023-05-07T00:27:53;22.77;;;16.40;;
6017;SDS011;3037;51.068;13.780;2023-05-07T00:30:18;24.27;;;17.40;;
6017;SDS011;3037;51.068;13.780;2023-05-07T00:32:44;29.20;;;17.60;;
6017;SDS011;3037;51.068;13.780;2023-05-07T00:35:13;26.37;;;18.00;;
6017;SDS011;3037;51.068;13.780;2023-05-07T00:37:39;24.27;;;17.47;;
6017;SDS011;3037;51.068;13.780;2023-05-07T00:40:05;24.47;;;17.90;;
6017;SDS011;3037;51.068;13.780;2023-05-07T00:42:32;22.93;;;16.90;;
6017;SDS011;3037;51.068;13.780;2023-05-07T00:44:58;21.60;;;17.10;;
6017;SDS011;3037;51.068;13.780;2023-05-07T00:47:24;27.47;;;18.27;;
6017;SDS011;3037;51.068;13.780;2023-05-07T00:49:50;27.47;;;18.90;;
6017;SDS011;3037;51.068;13.780;2023-05-07T00:52:16;25.27;;;18.03;;
6017;SDS011;3037;51.068;13.780;2023-05-07T00:54:42;24.40;;;18.50;;
6017;SDS011;3037;51.068;13.780;2023-05-07T00:57:09;23.80;;;17.67;;
6017;SDS011;3037;51.068;13.780;2023-05-07T00:59:36;22.33;;;17.27;;
6017;SDS011;3037;51.068;13.780;2023-05-07T01:02:02;23.30;;;17.10;;
6017;SDS011;3037;51.068;13.780;2023-05-07T01:04:27;19.50;;;14.83;;
6017;SDS011;3037;51.068;13.780;2023-05-07T01:06:54;22.43;;;17.60;;
6017;SDS011;3037;51.068;13.780;2023-05-07T01:09:21;19.47;;;15.37;;
6017;SDS011;3037;51.068;13.780;2023-05-07T01:11:48;23.47;;;17.33;;
6017;SDS011;3037;51.068;13.780;2023-05-07T01:14:15;22.00;;;16.30;;
6017;SDS011;3037;51.068;13.780;2023-05-07T01:16:41;20.90;;;15.33;;
6017;SDS011;3037;51.068;13.780;2023-05-07T01:19:07;22.30;;;17.03;;
6017;SDS011;3037;51.068;13.780;2023-05-07T01:21:35;19.37;;;15.53;;
6017;SDS011;3037;51.068;13.780;2023-05-07T01:24:02;20.60;;;15.20;;
6017;SDS011;3037;51.068;13.780;2023-05-07T01:26:28;19.03;;;14.80;;
6017;SDS011;3037;51.068;13.780;2023-05-07T01:28:54;21.20;;;16.30;;
6017;SDS011;3037;51.068;13.780;2023-05-07T01:31:20;19.70;;;14.87;;
6017;SDS011;3037;51.068;13.780;2023-05-07T01:33:46;19.77;;;14.83;;
6017;SDS011;3037;51.068;13.780;2023-05-07T01:36:14;19.67;;;14.70;;
6017;SDS011;3037;51.068;13.780;2023-05-07T01:38:42;19.20;;;15.10;;
6017;SDS011;3037;51.068;13.780;2023-05-07T01:41:08;21.10;;;13.73;;
6017;SDS011;3037;51.068;13.780;2023-05-07T01:43:34;21.13;;;15.20;;
6017;SDS011;3037;51.068;13.780;2023-05-07T01:45:59;19.70;;;14.80;;
6017;SDS011;3037;51.068;13.780;2023-05-07T01:48:26;18.63;;;13.77;;
6017;SDS011;3037;51.068;13.780;2023-05-07T01:50:52;18.30;;;15.23;;
6017;SDS011;3037;51.068;13.780;2023-05-07T01:53:17;17.80;;;15.63;;
6017;SDS011;3037;51.068;13.780;2023-05-07T01:55:43;21.03;;;15.47;;
6017;SDS011;3037;51.068;13.780;2023-05-07T01:58:08;22.40;;;16.27;;
6017;SDS011;3037;51.068;13.780;2023-05-07T02:00:34;20.27;;;15.00;;
6017;SDS011;3037;51.068;13.780;2023-05-07T02:02:59;20.27;;;14.67;;
6017;SDS011;3037;51.068;13.780;2023-05-07T02:05:25;18.47;;;14.47;;
6017;SDS011;3037;51.068;13.780;2023-05-07T02:07:50;22.10;;;14.97;;
6017;SDS011;3037;51.068;13.780;2023-05-07T02:10:16;19.20;;;15.53;;
6017;SDS011;3037;51.068;13.780;2023-05-07T02:12:41;21.30;;;15.03;;
6017;SDS011;3037;51.068;13.780;2023-05-07T02:15:07;17.23;;;13.80;;
6017;SDS011;3037;51.068;13.780;2023-05-07T02:17:33;18.37;;;14.57;;
6017;SDS011;3037;51.068;13.780;2023-05-07T02:19:59;17.03;;;14.47;;
6017;SDS011;3037;51.068;13.780;2023-05-07T02:22:24;20.23;;;15.13;;
6017;SDS011;3037;51.068;13.780;2023-05-07T02:24:50;18.20;;;14.53;;
6017;SDS011;3037;51.068;13.780;2023-05-07T02:27:16;18.10;;;15.07;;
6017;SDS011;3037;51.068;13.780;2023-05-07T02:29:41;18.50;;;14.27;;
6017;SDS011;3037;51.068;13.780;2023-05-07T02:32:07;15.57;;;13.70;;
6017;SDS011;3037;51.068;13.780;2023-05-07T02:34:32;20.03;;;15.27;;
6017;SDS011;3037;51.068;13.780;2023-05-07T02:36:58;26.67;;;15.97;;
6017;SDS011;3037;51.068;13.780;2023-05-07T02:39:23;21.37;;;14.17;;
6017;SDS011;3037;51.068;13.780;2023-05-07T02:41:49;22.70;;;15.00;;
6017;SDS011;3037;51.068;13.780;2023-05-07T02:44:15;21.53;;;13.43;;
6017;SDS011;3037;51.068;13.780;2023-05-07T02:46:40;17.37;;;14.10;;
6017;SDS011;3037;51.068;13.780;2023-05-07T02:49:06;19.70;;;14.47;;
6017;SDS011;3037;51.068;13.780;2023-05-07T02:51:31;17.27;;;13.33;;
6017;SDS011;3037;51.068;13.780;2023-05-07T02:53:57;16.47;;;11.57;;
6017;SDS011;3037;51.068;13.780;2023-05-07T02:56:22;19.03;;;11.23;;
6017;SDS011;3037;51.068;13.780;2023-05-07T02:58:50;13.10;;;10.70;;
6017;SDS011;3037;51.068;13.780;2023-05-07T03:01:16;14.10;;;11.33;;
6017;SDS011;3037;51.068;13.780;2023-05-07T03:03:41;12.20;;;10.20;;
6017;SDS011;3037;51.068;13.780;2023-05-07T03:06:07;16.73;;;11.10;;
6017;SDS011;3037;51.068;13.780;2023-05-07T03:08:32;14.70;;;10.07;;
6017;SDS011;3037;51.068;13.780;2023-05-07T03:10:58;13.33;;;10.97;;
6017;SDS011;3037;51.068;13.780;2023-05-07T03:13:23;13.43;;;11.50;;
6017;SDS011;3037;51.068;13.780;2023-05-07T03:15:49;14.97;;;10.93;;
6017;SDS011;3037;51.068;13.780;2023-05-07T03:18:15;16.90;;;12.07;;
6017;SDS011;3037;51.068;13.780;2023-05-07T03:20:40;14.00;;;11.97;;
6017;SDS011;3037;51.068;13.780;2023-05-07T03:23:06;18.10;;;13.17;;
6017;SDS011;3037;51.068;13.780;2023-05-07T03:25:31;20.53;;;13.60;;
6017;SDS011;3037;51.068;13.780;2023-05-07T03:27:57;22.60;;;14.13;;
6017;SDS011;3037;51.068;13.780;2023-05-07T03:30:23;19.17;;;12.53;;
6017;SDS011;3037;51.068;13.780;2023-05-07T03:32:48;21.53;;;13.47;;
6017;SDS011;3037;51.068;13.780;2023-05-07T03:35:14;21.20;;;14.67;;
6017;SDS011;3037;51.068;13.780;2023-05-07T03:37:40;19.20;;;13.83;;
6017;SDS011;3037;51.068;13.780;2023-05-07T03:40:06;19.93;;;14.50;;
6017;SDS011;3037;51.068;13.780;2023-05-07T03:42:32;22.80;;;15.80;;
6017;SDS011;3037;51.068;13.780;2023-05-07T03:44:58;21.10;;;14.40;;
6017;SDS011;3037;51.068;13.780;2023-05-07T03:47:23;25.63;;;16.13;;
6017;SDS011;3037;51.068;13.780;2023-05-07T03:49:49;19.17;;;14.30;;
6017;SDS011;3037;51.068;13.780;2023-05-07T03:52:15;24.07;;;14.47;;
6017;SDS011;3037;51.068;13.780;2023-05-07T03:54:40;23.67;;;16.47;;
6017;SDS011;3037;51.068;13.780;2023-05-07T03:57:06;26.47;;;15.90;;
6017;SDS011;3037;51.068;13.780;2023-05-07T03:59:32;26.13;;;15.57;;
6017;SDS011;3037;51.068;13.780;2023-05-07T04:01:57;27.30;;;15.27;;
6017;SDS011;3037;51.068;13.780;2023-05-07T04:04:23;25.20;;;16.30;;
6017;SDS011;3037;51.068;13.780;2023-05-07T04:06:48;25.13;;;14.80;;
6017;SDS011;3037;51.068;13.780;2023-05-07T04:09:14;25.50;;;14.53;;
6017;SDS011;3037;51.068;13.780;2023-05-07T04:11:40;21.00;;;14.83;;
6017;SDS011;3037;51.068;13.780;2023-05-07T04:14:05;22.47;;;14.30;;
6017;SDS011;3037;51.068;13.780;2023-05-07T04:16:31;21.00;;;14.20;;
6017;SDS011;3037;51.068;13.780;2023-05-07T04:18:57;19.87;;;13.23;;
6017;SDS011;3037;51.068;13.780;2023-05-07T04:21:22;23.30;;;14.00;;
6017;SDS011;3037;51.068;13.780;2023-05-07T04:23:48;20.40;;;13.90;;
6017;SDS011;3037;51.068;13.780;2023-05-07T04:26:14;20.13;;;13.40;;
6017;SDS011;3037;51.068;13.780;2023-05-07T04:28:40;21.20;;;14.00;;
6017;SDS011;3037;51.068;13.780;2023-05-07T04:31:06;20.30;;;13.50;;
6017;SDS011;3037;51.068;13.780;2023-05-07T04:33:32;22.03;;;14.60;;
6017;SDS011;3037;51.068;13.780;2023-05-07T04:36:00;22.63;;;14.50;;
6017;SDS011;3037;51.068;13.780;2023-05-07T04:38:28;27.27;;;15.80;;
6017;SDS011;3037;51.068;13.780;2023-05-07T04:40:55;19.33;;;13.80;;
6017;SDS011;3037;51.068;13.780;2023-05-07T04:43:22;20.50;;;13.10;;
6017;SDS011;3037;51.068;13.780;2023-05-07T04:45:47;22.80;;;13.03;;
6017;SDS011;3037;51.068;13.780;2023-05-07T04:48:14;24.40;;;13.17;;
6017;SDS011;3037;51.068;13.780;2023-05-07T04:50:40;16.40;;;12.13;;
6017;SDS011;3037;51.068;13.780;2023-05-07T04:53:06;18.63;;;12.47;;
6017;SDS011;3037;51.068;13.780;2023-05-07T04:55:31;20.30;;;12.67;;
6017;SDS011;3037;51.068;13.780;2023-05-07T04:57:57;16.10;;;10.87;;
6017;SDS011;3037;51.068;13.780;2023-05-07T05:00:22;19.43;;;12.87;;
6017;SDS011;3037;51.068;13.780;2023-05-07T05:02:48;16.40;;;11.43;;
6017;SDS011;3037;51.068;13.780;2023-05-07T05:05:14;17.30;;;11.97;;
6017;SDS011;3037;51.068;13.780;2023-05-07T05:07:39;17.97;;;12.40;;
6017;SDS011;3037;51.068;13.780;2023-05-07T05:10:05;15.30;;;11.40;;
6017;SDS011;3037;51.068;13.780;2023-05-07T05:12:31;17.73;;;12.90;;
6017;SDS011;3037;51.068;13.780;2023-05-07T05:14:56;18.53;;;11.43;;
6017;SDS011;3037;51.068;13.780;2023-05-07T05:17:22;19.37;;;13.80;;
6017;SDS011;3037;51.068;13.780;2023-05-07T05:19:47;19.03;;;12.23;;
6017;SDS011;3037;51.068;13.780;2023-05-07T05:22:13;17.53;;;11.90;;
6017;SDS011;3037;51.068;13.780;2023-05-07T05:24:39;15.30;;;12.20;;
6017;SDS011;3037;51.068;13.780;2023-05-07T05:27:04;17.40;;;12.63;;
6017;SDS011;3037;51.068;13.780;2023-05-07T05:29:30;18.80;;;13.80;;
6017;SDS011;3037;51.068;13.780;2023-05-07T05:31:56;21.97;;;13.40;;
6017;SDS011;3037;51.068;13.780;2023-05-07T05:34:22;22.03;;;14.40;;
6017;SDS011;3037;51.068;13.780;2023-05-07T05:36:47;18.43;;;13.30;;
6017;SDS011;3037;51.068;13.780;2023-05-07T05:39:13;20.93;;;14.83;;
6017;SDS011;3037;51.068;13.780;2023-05-07T05:41:39;20.40;;;13.63;;
6017;SDS011;3037;51.068;13.780;2023-05-07T05:44:04;21.03;;;14.30;;
6017;SDS011;3037;51.068;13.780;2023-05-07T05:46:30;20.57;;;13.17;;
6017;SDS011;3037;51.068;13.780;2023-05-07T05:48:56;18.30;;;12.50;;
6017;SDS011;3037;51.068;13.780;2023-05-07T05:51:21;16.00;;;11.23;;
6017;SDS011;3037;51.068;13.780;2023-05-07T05:53:48;15.20;;;11.20;;
6017;SDS011;3037;51.068;13.780;2023-05-07T05:56:13;20.73;;;10.23;;
6017;SDS011;3037;51.068;13.780;2023-05-07T05:58:40;12.97;;;9.67;;
6017;SDS011;3037;51.068;13.780;2023-05-07T06:01:06;12.57;;;9.60;;
6017;SDS011;3037;51.068;13.780;2023-05-07T06:03:31;13.03;;;9.60;;
6017;SDS011;3037;51.068;13.780;2023-05-07T06:05:59;12.93;;;9.47;;
6017;SDS011;3037;51.068;13.780;2023-05-07T06:08:25;12.10;;;9.00;;
6017;SDS011;3037;51.068;13.780;2023-05-07T06:10:53;12.07;;;9.27;;
6017;SDS011;3037;51.068;13.780;2023-05-07T06:13:19;12.07;;;9.43;;
6017;SDS011;3037;51.068;13.780;2023-05-07T06:15:44;13.20;;;10.20;;
6017;SDS011;3037;51.068;13.780;2023-05-07T06:18:10;12.53;;;8.10;;
6017;SDS011;3037;51.068;13.780;2023-05-07T06:20:35;12.10;;;9.80;;
6017;SDS011;3037;51.068;13.780;2023-05-07T06:23:01;12.40;;;8.90;;
6017;SDS011;3037;51.068;13.780;2023-05-07T06:25:27;14.60;;;9.40;;
6017;SDS011;3037;51.068;13.780;2023-05-07T06:27:52;13.37;;;9.53;;
6017;SDS011;3037;51.068;13.780;2023-05-07T06:30:18;15.87;;;8.90;;
6017;SDS011;3037;51.068;13.780;2023-05-07T06:32:43;17.70;;;9.40;;
6017;SDS011;3037;51.068;13.780;2023-05-07T06:35:09;11.30;;;9.37;;
6017;SDS011;3037;51.068;13.780;2023-05-07T06:37:34;11.20;;;9.17;;
6017;SDS011;3037;51.068;13.780;2023-05-07T06:40:03;10.10;;;8.60;;
6017;SDS011;3037;51.068;13.780;2023-05-07T06:42:29;12.57;;;9.50;;
6017;SDS011;3037;51.068;13.780;2023-05-07T06:44:55;12.43;;;8.60;;
6017;SDS011;3037;51.068;13.780;2023-05-07T06:47:20;9.93;;;7.23;;
6017;SDS011;3037;51.068;13.780;2023-05-07T06:49:46;12.57;;;9.73;;
6017;SDS011;3037;51.068;13.780;2023-05-07T06:52:11;16.60;;;10.33;;
6017;SDS011;3037;51.068;13.780;2023-05-07T06:54:37;13.70;;;9.33;;
6017;SDS011;3037;51.068;13.780;2023-05-07T06:57:03;12.17;;;9.77;;
6017;SDS011;3037;51.068;13.780;2023-05-07T06:59:28;21.90;;;10.27;;
6017;SDS011;3037;51.068;13.780;2023-05-07T07:01:53;16.90;;;10.10;;
6017;SDS011;3037;51.068;13.780;2023-05-07T07:04:19;10.70;;;9.50;;
6017;SDS011;3037;51.068;13.780;2023-05-07T07:06:47;12.47;;;8.23;;
6017;SDS011;3037;51.068;13.780;2023-05-07T07:09:12;9.70;;;8.30;;
6017;SDS011;3037;51.068;13.780;2023-05-07T07:11:38;10.50;;;8.57;;
6017;SDS011;3037;51.068;13.780;2023-05-07T07:14:03;7.93;;;6.87;;
6017;SDS011;3037;51.068;13.780;2023-05-07T07:16:30;7.27;;;6.53;;
6017;SDS011;3037;51.068;13.780;2023-05-07T07:18:55;7.37;;;6.63;;
6017;SDS011;3037;51.068;13.780;2023-05-07T07:21:21;8.77;;;6.47;;
6017;SDS011;3037;51.068;13.780;2023-05-07T07:23:46;6.40;;;5.77;;
6017;SDS011;3037;51.068;13.780;2023-05-07T07:26:12;5.33;;;4.87;;
6017;SDS011;3037;51.068;13.780;2023-05-07T07:28:44;5.63;;;5.13;;
6017;SDS011;3037;51.068;13.780;2023-05-07T07:31:10;6.83;;;6.17;;
6017;SDS011;3037;51.068;13.780;2023-05-07T07:33:36;6.43;;;5.93;;
6017;SDS011;3037;51.068;13.780;2023-05-07T07:36:01;6.30;;;5.83;;
6017;SDS011;3037;51.068;13.780;2023-05-07T07:38:27;5.87;;;5.27;;
6017;SDS011;3037;51.068;13.780;2023-05-07T07:40:53;5.80;;;4.80;;
6017;SDS011;3037;51.068;13.780;2023-05-07T07:43:18;5.77;;;5.27;;
6017;SDS011;3037;51.068;13.780;2023-05-07T07:45:44;5.77;;;5.17;;
6017;SDS011;3037;51.068;13.780;2023-05-07T07:48:10;5.20;;;4.80;;
6017;SDS011;3037;51.068;13.780;2023-05-07T07:50:36;5.70;;;5.30;;
6017;SDS011;3037;51.068;13.780;2023-05-07T07:53:01;5.00;;;4.60;;
6017;SDS011;3037;51.068;13.780;2023-05-07T07:55:27;5.33;;;4.93;;
6017;SDS011;3037;51.068;13.780;2023-05-07T07:57:53;4.73;;;4.33;;
6017;SDS011;3037;51.068;13.780;2023-05-07T08:00:18;4.73;;;4.33;;
6017;SDS011;3037;51.068;13.780;2023-05-07T08:02:44;5.13;;;3.90;;
6017;SDS011;3037;51.068;13.780;2023-05-07T08:05:10;4.13;;;3.87;;
6017;SDS011;3037;51.068;13.780;2023-05-07T08:07:35;4.90;;;4.60;;
6017;SDS011;3037;51.068;13.780;2023-05-07T08:10:01;4.33;;;3.80;;
6017;SDS011;3037;51.068;13.780;2023-05-07T08:12:27;4.37;;;4.10;;
6017;SDS011;3037;51.068;13.780;2023-05-07T08:14:52;4.27;;;3.97;;
6017;SDS011;3037;51.068;13.780;2023-05-07T08:17:18;3.80;;;3.60;;
6017;SDS011;3037;51.068;13.780;2023-05-07T08:19:43;4.60;;;4.30;;
6017;SDS011;3037;51.068;13.780;2023-05-07T08:22:09;3.93;;;3.73;;
6017;SDS011;3037;51.068;13.780;2023-05-07T08:24:35;4.17;;;3.87;;
6017;SDS011;3037;51.068;13.780;2023-05-07T08:27:01;7.20;;;3.90;;
6017;SDS011;3037;51.068;13.780;2023-05-07T08:29:26;5.10;;;4.80;;
6017;SDS011;3037;51.068;13.780;2023-05-07T08:31:52;4.63;;;4.20;;
6017;SDS011;3037;51.068;13.780;2023-05-07T08:34:18;5.30;;;4.67;;
6017;SDS011;3037;51.068;13.780;2023-05-07T08:36:43;6.87;;;6.27;;
6017;SDS011;3037;51.068;13.780;2023-05-07T08:39:11;5.90;;;5.50;;
6017;SDS011;3037;51.068;13.780;2023-05-07T08:41:37;7.87;;;5.07;;
6017;SDS011;3037;51.068;13.780;2023-05-07T08:44:03;5.70;;;5.30;;
6017;SDS011;3037;51.068;13.780;2023-05-07T08:46:31;6.17;;;5.67;;
6017;SDS011;3037;51.068;13.780;2023-05-07T08:48:57;5.97;;;5.43;;
6017;SDS011;3037;51.068;13.780;2023-05-07T08:51:23;6.67;;;6.10;;
6017;SDS011;3037;51.068;13.780;2023-05-07T08:53:49;7.07;;;6.37;;
6017;SDS011;3037;51.068;13.780;2023-05-07T08:56:15;8.87;;;8.07;;
6017;SDS011;3037;51.068;13.780;2023-05-07T08:58:44;6.80;;;6.20;;
6017;SDS011;3037;51.068;13.780;2023-05-07T09:01:11;7.53;;;6.70;;
6017;SDS011;3037;51.068;13.780;2023-05-07T09:03:39;7.70;;;6.90;;
6017;SDS011;3037;51.068;13.780;2023-05-07T09:06:05;7.90;;;7.17;;
6017;SDS011;3037;51.068;13.780;2023-05-07T09:08:32;8.53;;;7.73;;
6017;SDS011;3037;51.068;13.780;2023-05-07T09:10:58;6.97;;;6.47;;
6017;SDS011;3037;51.068;13.780;2023-05-07T09:13:24;8.97;;;8.07;;
6017;SDS011;3037;51.068;13.780;2023-05-07T09:15:50;9.43;;;7.20;;
6017;SDS011;3037;51.068;13.780;2023-05-07T09:18:15;7.23;;;6.07;;
6017;SDS011;3037;51.068;13.780;2023-05-07T09:20:41;7.50;;;6.00;;
6017;SDS011;3037;51.068;13.780;2023-05-07T09:23:07;7.73;;;7.13;;
6017;SDS011;3037;51.068;13.780;2023-05-07T09:25:33;7.10;;;6.50;;
6017;SDS011;3037;51.068;13.780;2023-05-07T09:28:00;8.13;;;6.77;;
6017;SDS011;3037;51.068;13.780;2023-05-07T09:30:27;7.27;;;6.67;;
6017;SDS011;3037;51.068;13.780;2023-05-07T09:32:57;8.80;;;7.17;;
6017;SDS011;3037;51.068;13.780;2023-05-07T09:35:24;9.37;;;8.37;;
6017;SDS011;3037;51.068;13.780;2023-05-07T09:37:52;8.60;;;7.23;;
6017;SDS011;3037;51.068;13.780;2023-05-07T09:40:20;7.90;;;7.10;;
6017;SDS011;3037;51.068;13.780;2023-05-07T09:42:52;9.83;;;7.83;;
6017;SDS011;3037;51.068;13.780;2023-05-07T09:45:21;8.23;;;7.57;;
6017;SDS011;3037;51.068;13.780;2023-05-07T09:47:48;6.73;;;6.23;;
6017;SDS011;3037;51.068;13.780;2023-05-07T09:50:18;7.93;;;7.23;;
6017;SDS011;3037;51.068;13.780;2023-05-07T09:52:46;10.70;;;7.70;;
6017;SDS011;3037;51.068;13.780;2023-05-07T09:55:12;13.40;;;9.17;;
6017;SDS011;3037;51.068;13.780;2023-05-07T09:57:39;10.10;;;9.07;;
6017;SDS011;3037;51.068;13.780;2023-05-07T10:00:07;13.00;;;8.47;;
6017;SDS011;3037;51.068;13.780;2023-05-07T10:02:34;10.73;;;8.07;;
6017;SDS011;3037;51.068;13.780;2023-05-07T10:05:01;9.80;;;8.90;;
6017;SDS011;3037;51.068;13.780;2023-05-07T10:07:28;8.67;;;7.83;;
6017;SDS011;3037;51.068;13.780;2023-05-07T10:09:55;9.70;;;8.30;;
6017;SDS011;3037;51.068;13.780;2023-05-07T10:12:21;8.60;;;7.80;;
6017;SDS011;3037;51.068;13.780;2023-05-07T10:14:46;8.13;;;7.43;;
6017;SDS011;3037;51.068;13.780;2023-05-07T10:17:13;7.20;;;6.47;;
6017;SDS011;3037;51.068;13.780;2023-05-07T10:19:42;7.53;;;6.90;;
6017;SDS011;3037;51.068;13.780;2023-05-07T10:22:09;7.77;;;7.17;;
6017;SDS011;3037;51.068;13.780;2023-05-07T10:24:36;8.83;;;7.10;;
6017;SDS011;3037;51.068;13.780;2023-05-07T10:27:03;8.90;;;7.93;;
6017;SDS011;3037;51.068;13.780;2023-05-07T10:29:51;8.80;;;7.50;;
6017;SDS011;3037;51.068;13.780;2023-05-07T10:32:47;8.70;;;7.97;;
6017;SDS011;3037;51.068;13.780;2023-05-07T10:35:26;8.13;;;6.90;;
6017;SDS011;3037;51.068;13.780;2023-05-07T10:37:56;7.20;;;6.50;;
6017;SDS011;3037;51.068;13.780;2023-05-07T10:40:23;8.33;;;7.23;;
6017;SDS011;3037;51.068;13.780;2023-05-07T10:42:53;6.47;;;5.97;;
6017;SDS011;3037;51.068;13.780;2023-05-07T10:45:23;7.37;;;6.67;;
6017;SDS011;3037;51.068;13.780;2023-05-07T10:48:05;9.77;;;6.43;;
6017;SDS011;3037;51.068;13.780;2023-05-07T10:50:34;8.03;;;6.70;;
6017;SDS011;3037;51.068;13.780;2023-05-07T10:55:47;6.63;;;6.13;;
6017;SDS011;3037;51.068;13.780;2023-05-07T11:00:56;5.37;;;4.97;;
6017;SDS011;3037;51.068;13.780;2023-05-07T11:03:23;6.13;;;5.70;;
6017;SDS011;3037;51.068;13.780;2023-05-07T11:06:08;5.90;;;5.40;;
6017;SDS011;3037;51.068;13.780;2023-05-07T11:08:54;5.73;;;5.23;;
6017;SDS011;3037;51.068;13.780;2023-05-07T11:12:05;8.17;;;5.73;;
6017;SDS011;3037;51.068;13.780;2023-05-07T11:14:10;6.30;;;5.80;;
6017;SDS011;3037;51.068;13.780;2023-05-07T11:16:36;5.63;;;5.20;;
6017;SDS011;3037;51.068;13.780;2023-05-07T11:19:03;6.23;;;5.70;;
6017;SDS011;3037;51.068;13.780;2023-05-07T11:23:57;6.63;;;6.13;;
6017;SDS011;3037;51.068;13.780;2023-05-07T11:26:23;5.00;;;4.60;;
6017;SDS011;3037;51.068;13.780;2023-05-07T11:28:50;6.77;;;5.50;;
6017;SDS011;3037;51.068;13.780;2023-05-07T11:31:19;5.83;;;5.40;;
6017;SDS011;3037;51.068;13.780;2023-05-07T11:33:47;5.67;;;5.20;;
6017;SDS011;3037;51.068;13.780;2023-05-07T11:36:13;6.00;;;5.53;;
6017;SDS011;3037;51.068;13.780;2023-05-07T11:38:39;5.70;;;5.20;;
6017;SDS011;3037;51.068;13.780;2023-05-07T11:41:05;6.07;;;5.53;;
6017;SDS011;3037;51.068;13.780;2023-05-07T11:43:32;6.00;;;5.40;;
6017;SDS011;3037;51.068;13.780;2023-05-07T11:46:10;6.77;;;6.07;;
6017;SDS011;3037;51.068;13.780;2023-05-07T11:48:37;9.20;;;6.23;;
6017;SDS011;3037;51.068;13.780;2023-05-07T11:51:04;5.60;;;5.20;;
6017;SDS011;3037;51.068;13.780;2023-05-07T11:53:37;6.30;;;5.80;;
6017;SDS011;3037;51.068;13.780;2023-05-07T11:56:07;5.77;;;5.30;;
6017;SDS011;3037;51.068;13.780;2023-05-07T11:58:34;6.73;;;6.13;;
6017;SDS011;3037;51.068;13.780;2023-05-07T12:01:00;10.40;;;6.10;;
6017;SDS011;3037;51.068;13.780;2023-05-07T12:03:25;6.50;;;5.90;;
6017;SDS011;3037;51.068;13.780;2023-05-07T12:05:51;6.90;;;5.80;;
6017;SDS011;3037;51.068;13.780;2023-05-07T12:08:17;6.70;;;6.10;;
6017;SDS011;3037;51.068;13.780;2023-05-07T12:10:44;6.10;;;5.60;;
6017;SDS011;3037;51.068;13.780;2023-05-07T12:13:19;6.67;;;6.13;;
6017;SDS011;3037;51.068;13.780;2023-05-07T12:15:52;6.73;;;5.67;;
6017;SDS011;3037;51.068;13.780;2023-05-07T12:18:18;7.00;;;5.90;;
6017;SDS011;3037;51.068;13.780;2023-05-07T12:20:45;6.07;;;5.60;;
6017;SDS011;3037;51.068;13.780;2023-05-07T12:23:11;5.67;;;5.20;;
6017;SDS011;3037;51.068;13.780;2023-05-07T12:25:37;6.10;;;5.60;;
6017;SDS011;3037;51.068;13.780;2023-05-07T12:28:05;6.43;;;5.73;;
6017;SDS011;3037;51.068;13.780;2023-05-07T12:30:37;6.17;;;5.73;;
6017;SDS011;3037;51.068;13.780;2023-05-07T12:33:03;5.23;;;4.93;;
6017;SDS011;3037;51.068;13.780;2023-05-07T12:37:58;6.33;;;5.83;;
6017;SDS011;3037;51.068;13.780;2023-05-07T12:40:34;6.13;;;5.47;;
6017;SDS011;3037;51.068;13.780;2023-05-07T12:43:19;5.63;;;5.23;;
6017;SDS011;3037;51.068;13.780;2023-05-07T12:45:47;5.93;;;5.43;;
6017;SDS011;3037;51.068;13.780;2023-05-07T12:48:14;6.10;;;5.70;;
6017;SDS011;3037;51.068;13.780;2023-05-07T12:50:40;6.83;;;5.90;;
6017;SDS011;3037;51.068;13.780;2023-05-07T12:53:06;6.00;;;5.60;;
6017;SDS011;3037;51.068;13.780;2023-05-07T12:55:48;5.90;;;5.07;;
6017;SDS011;3037;51.068;13.780;2023-05-07T12:58:17;5.60;;;5.30;;
6017;SDS011;3037;51.068;13.780;2023-05-07T13:00:48;5.43;;;5.03;;
6017;SDS011;3037;51.068;13.780;2023-05-07T13:03:21;6.20;;;5.70;;
6017;SDS011;3037;51.068;13.780;2023-05-07T13:05:48;7.03;;;5.90;;
6017;SDS011;3037;51.068;13.780;2023-05-07T13:08:22;5.10;;;4.80;;
6017;SDS011;3037;51.068;13.780;2023-05-07T13:10:52;5.80;;;5.30;;
6017;SDS011;3037;51.068;13.780;2023-05-07T13:13:18;5.00;;;4.43;;
6017;SDS011;3037;51.068;13.780;2023-05-07T13:15:45;5.30;;;4.83;;
6017;SDS011;3037;51.068;13.780;2023-05-07T13:18:10;5.17;;;4.73;;
6017;SDS011;3037;51.068;13.780;2023-05-07T13:20:36;4.83;;;4.53;;
6017;SDS011;3037;51.068;13.780;2023-05-07T13:23:02;4.87;;;4.53;;
6017;SDS011;3037;51.068;13.780;2023-05-07T13:25:29;5.00;;;4.50;;
6017;SDS011;3037;51.068;13.780;2023-05-07T13:27:56;4.73;;;4.33;;
6017;SDS011;3037;51.068;13.780;2023-05-07T13:30:22;5.53;;;5.03;;
6017;SDS011;3037;51.068;13.780;2023-05-07T13:32:48;5.13;;;4.67;;
6017;SDS011;3037;51.068;13.780;2023-05-07T13:35:13;5.50;;;5.10;;
6017;SDS011;3037;51.068;13.780;2023-05-07T13:37:39;4.53;;;4.23;;
6017;SDS011;3037;51.068;13.780;2023-05-07T13:40:05;4.97;;;4.57;;
6017;SDS011;3037;51.068;13.780;2023-05-07T13:42:31;4.60;;;4.30;;
6017;SDS011;3037;51.068;13.780;2023-05-07T13:44:56;4.63;;;4.33;;
6017;SDS011;3037;51.068;13.780;2023-05-07T13:47:22;4.40;;;4.10;;
6017;SDS011;3037;51.068;13.780;2023-05-07T13:49:48;5.30;;;5.00;;
6017;SDS011;3037;51.068;13.780;2023-05-07T13:52:16;4.30;;;4.00;;
6017;SDS011;3037;51.068;13.780;2023-05-07T13:54:42;4.40;;;4.10;;
6017;SDS011;3037;51.068;13.780;2023-05-07T13:57:07;4.67;;;4.33;;
6017;SDS011;3037;51.068;13.780;2023-05-07T13:59:33;4.57;;;4.27;;
6017;SDS011;3037;51.068;13.780;2023-05-07T14:01:59;4.13;;;3.83;;
6017;SDS011;3037;51.068;13.780;2023-05-07T14:04:24;3.33;;;3.13;;
6017;SDS011;3037;51.068;13.780;2023-05-07T14:06:50;4.77;;;4.27;;
6017;SDS011;3037;51.068;13.780;2023-05-07T14:09:16;4.33;;;4.07;;
6017;SDS011;3037;51.068;13.780;2023-05-07T14:11:41;4.07;;;3.87;;
6017;SDS011;3037;51.068;13.780;2023-05-07T14:14:07;4.53;;;4.30;;
6017;SDS011;3037;51.068;13.780;2023-05-07T14:16:35;6.10;;;3.90;;
6017;SDS011;3037;51.068;13.780;2023-05-07T14:19:01;4.20;;;3.90;;
6017;SDS011;3037;51.068;13.780;2023-05-07T14:21:26;3.80;;;3.43;;
6017;SDS011;3037;51.068;13.780;2023-05-07T14:23:52;4.57;;;3.10;;
6017;SDS011;3037;51.068;13.780;2023-05-07T14:26:17;3.40;;;3.23;;
6017;SDS011;3037;51.068;13.780;2023-05-07T14:28:43;3.87;;;3.67;;
6017;SDS011;3037;51.068;13.780;2023-05-07T14:31:11;3.20;;;3.00;;
6017;SDS011;3037;51.068;13.780;2023-05-07T14:33:37;3.20;;;2.90;;
6017;SDS011;3037;51.068;13.780;2023-05-07T14:36:02;3.60;;;3.50;;
6017;SDS011;3037;51.068;13.780;2023-05-07T14:38:28;6.00;;;3.00;;
6017;SDS011;3037;51.068;13.780;2023-05-07T14:40:55;3.63;;;3.43;;
6017;SDS011;3037;51.068;13.780;2023-05-07T14:43:21;3.23;;;3.10;;
6017;SDS011;3037;51.068;13.780;2023-05-07T14:45:47;3.60;;;3.40;;
6017;SDS011;3037;51.068;13.780;2023-05-07T14:48:12;6.63;;;4.10;;
6017;SDS011;3037;51.068;13.780;2023-05-07T14:50:40;4.87;;;4.47;;
6017;SDS011;3037;51.068;13.780;2023-05-07T14:53:06;3.90;;;3.70;;
6017;SDS011;3037;51.068;13.780;2023-05-07T14:55:31;4.17;;;3.50;;